Time;durP1;ratioP1;P1;durP2;ratioP2;P2;SDS_P1;SDS_P2;PMS_P1;PMS_P2;Temp;Humidity;BMP_temperature;BMP_pressure;BME280_temperature;BME280_humidity;BME280_pressure;Samples;Min_cycle;Max_cycle;Signal;HPM_P1;HPM_P2
2023/02/27 00:04:49;;;;;;;10.70;6.50;;;;;;;-0.97;79.49;99247.49;220872;1281;26267;-79
2023/02/27 00:09:56;;;;;;;8.70;4.70;;;;;;;-1.04;79.06;99245.54;220882;1265;22542;-78
2023/02/27 00:15:08;;;;;;;11.40;5.80;;;;;;;-1.11;78.99;99251.50;220927;1283;22539;-78
2023/02/27 00:20:14;;;;;;;10.10;6.40;;;;;;;-1.18;79.01;99256.98;221025;1280;26323;-78
2023/02/27 00:25:17;;;;;;;12.30;7.90;;;;;;;-1.25;78.95;99259.89;221004;1277;22633;-78
2023/02/27 00:30:19;;;;;;;11.60;6.50;;;;;;;-1.29;79.34;99268.45;220797;1283;22597;-77
2023/02/27 00:35:23;;;;;;;8.80;4.00;;;;;;;-1.28;79.25;99273.56;220918;1282;27482;-79
2023/02/27 00:40:25;;;;;;;6.90;3.10;;;;;;;-1.22;79.50;99274.77;220943;1281;26373;-77
2023/02/27 00:45:27;;;;;;;6.80;3.40;;;;;;;-1.14;79.30;99268.48;220854;1281;22537;-77
2023/02/27 00:50:30;;;;;;;9.20;3.90;;;;;;;-1.05;79.18;99271.00;220916;1283;23227;-78
2023/02/27 00:55:32;;;;;;;8.10;3.20;;;;;;;-0.97;79.05;99268.03;221032;1281;22630;-78
2023/02/27 01:00:34;;;;;;;9.10;3.70;;;;;;;-0.89;78.70;99268.41;220726;1283;22552;-77
2023/02/27 01:05:36;;;;;;;5.80;3.00;;;;;;;-0.83;78.53;99268.82;220899;1281;23805;-77
2023/02/27 01:10:38;;;;;;;8.10;3.90;;;;;;;-0.78;78.63;99271.07;220931;1276;22559;-77
2023/02/27 01:15:40;;;;;;;6.10;3.40;;;;;;;-0.73;78.73;99268.48;221038;1278;26445;-78
2023/02/27 01:20:43;;;;;;;6.20;2.60;;;;;;;-0.69;78.62;99269.41;221017;1281;22539;-77
2023/02/27 01:25:47;;;;;;;5.40;3.00;;;;;;;-0.66;78.26;99272.82;221030;1281;22533;-77
2023/02/27 01:30:50;;;;;;;5.60;3.50;;;;;;;-0.63;78.17;99279.20;220984;1281;22691;-78
2023/02/27 01:35:52;;;;;;;9.10;3.50;;;;;;;-0.60;78.17;99282.42;220978;1279;23801;-77
2023/02/27 01:40:56;;;;;;;7.40;3.50;;;;;;;-0.56;77.97;99287.02;220926;1279;26100;-77
2023/02/27 01:45:59;;;;;;;7.10;3.10;;;;;;;-0.54;78.03;99291.01;221028;1282;25685;-76
2023/02/27 01:51:07;;;;;;;8.30;3.40;;;;;;;-0.52;78.06;99294.54;221037;1283;22591;-77
2023/02/27 01:56:15;;;;;;;7.80;2.90;;;;;;;-0.50;77.67;99297.52;220986;1283;24244;-77
2023/02/27 02:01:19;;;;;;;5.00;2.90;;;;;;;-0.47;77.86;99304.36;220719;1281;22624;-76
2023/02/27 02:06:22;;;;;;;8.20;4.00;;;;;;;-0.45;77.72;99302.67;220964;1279;22593;-78
2023/02/27 02:11:26;;;;;;;6.50;2.90;;;;;;;-0.44;77.08;99303.66;221041;1278;24214;-77
2023/02/27 02:16:42;;;;;;;8.30;3.40;;;;;;;-0.42;77.66;99311.31;221124;1279;26383;-78
2023/02/27 02:22:07;;;;;;;5.90;2.90;;;;;;;-0.42;77.26;99316.77;221069;1281;22991;-77
2023/02/27 02:27:39;;;;;;;7.10;2.60;;;;;;;-0.42;76.75;99322.58;220940;1283;25695;-78
2023/02/27 02:33:00;;;;;;;6.00;2.60;;;;;;;-0.43;76.68;99330.54;220916;1281;22540;-77
2023/02/27 02:38:46;;;;;;;7.50;3.20;;;;;;;-0.43;76.42;99336.94;220974;1278;22543;-78
2023/02/27 02:44:24;;;;;;;8.10;3.40;;;;;;;-0.40;76.58;99338.33;220808;1283;24290;-79
2023/02/27 02:49:59;;;;;;;5.30;2.90;;;;;;;-0.37;76.60;99343.44;220987;1283;22569;-78
2023/02/27 02:55:31;;;;;;;8.30;3.10;;;;;;;-0.34;76.58;99349.55;220948;1283;25344;-78
2023/02/27 03:00:39;;;;;;;5.90;2.70;;;;;;;-0.32;76.34;99358.42;220924;1283;25355;-77
2023/02/27 03:05:50;;;;;;;6.80;3.00;;;;;;;-0.36;76.07;99352.79;220719;1281;22628;-78
2023/02/27 03:10:59;;;;;;;4.90;2.40;;;;;;;-0.39;75.78;99355.05;220842;1283;22647;-77
2023/02/27 03:16:52;;;;;;;6.00;2.70;;;;;;;-0.42;75.59;99354.86;220987;1282;25570;-77
2023/02/27 03:22:01;;;;;;;4.40;2.40;;;;;;;-0.43;75.60;99356.35;220680;1283;25418;-78
2023/02/27 03:27:07;;;;;;;3.10;2.10;;;;;;;-0.45;75.36;99354.73;220913;1283;22601;-77
2023/02/27 03:32:21;;;;;;;4.00;1.80;;;;;;;-0.45;75.68;99349.23;221099;1282;22734;-77
2023/02/27 03:37:44;;;;;;;3.40;2.00;;;;;;;-0.46;75.36;99347.21;220957;1280;22543;-79
2023/02/27 03:42:56;;;;;;;4.40;2.20;;;;;;;-0.47;75.60;99349.89;220868;1279;22589;-78
2023/02/27 03:48:21;;;;;;;3.20;2.30;;;;;;;-0.47;75.11;99355.27;220878;1283;24215;-77
2023/02/27 03:53:48;;;;;;;5.40;2.40;;;;;;;-0.48;75.18;99359.81;220684;1283;25344;-77
2023/02/27 03:58:52;;;;;;;4.20;2.20;;;;;;;-0.49;75.13;99366.66;220938;1283;25515;-77
2023/02/27 04:04:03;;;;;;;4.90;1.80;;;;;;;-0.52;74.94;99369.80;220920;1279;22577;-77
2023/02/27 04:09:47;;;;;;;;;;;;;;;-0.54;75.00;99373.71;220978;1279;22557;-79
2023/02/27 04:14:58;;;;;;;4.90;2.10;;;;;;;-0.57;75.12;99378.28;220814;1281;22543;-78
2023/02/27 04:20:34;;;;;;;5.20;2.60;;;;;;;-0.59;75.60;99387.21;220851;1279;22539;-78
2023/02/27 04:26:14;;;;;;;3.90;2.10;;;;;;;-0.60;75.48;99396.29;221003;1277;25469;-78
2023/02/27 04:31:18;;;;;;;6.40;2.70;;;;;;;-0.62;75.33;99399.71;220921;1280;24201;-77
2023/02/27 04:36:33;;;;;;;6.60;2.40;;;;;;;-0.62;75.80;99399.55;220863;1282;22634;-78
2023/02/27 04:41:51;;;;;;;6.30;2.90;;;;;;;-0.64;75.64;99401.57;220958;1283;22643;-77
2023/02/27 04:46:56;;;;;;;6.10;2.60;;;;;;;-0.66;75.93;99410.66;220965;1282;22620;-78
2023/02/27 04:52:11;;;;;;;5.10;2.50;;;;;;;-0.66;75.71;99413.45;220818;1282;22547;-77
2023/02/27 04:57:21;;;;;;;5.20;2.40;;;;;;;-0.67;76.22;99415.92;220922;1277;22560;-78
2023/02/27 05:02:50;;;;;;;3.90;2.20;;;;;;;-0.67;76.18;99419.58;221096;1280;22691;-78
2023/02/27 05:08:01;;;;;;;8.60;3.50;;;;;;;-0.67;76.17;99418.05;221038;1279;22558;-78
2023/02/27 05:13:29;;;;;;;10.40;4.20;;;;;;;-0.67;76.44;99419.04;221185;1282;23949;-78
2023/02/27 05:18:31;;;;;;;7.10;3.00;;;;;;;-0.65;76.65;99423.80;220962;1283;24433;-78
2023/02/27 05:23:47;;;;;;;7.70;2.90;;;;;;;-0.64;76.46;99432.05;220882;1283;24229;-77
2023/02/27 05:29:26;;;;;;;5.40;2.90;;;;;;;-0.63;76.73;99430.73;220931;1280;24153;-77
2023/02/27 05:34:57;;;;;;;7.20;3.00;;;;;;;-0.61;76.45;99436.98;220960;1283;22734;-77
2023/02/27 05:40:07;;;;;;;8.50;2.90;;;;;;;-0.59;76.55;99438.60;220885;1283;22712;-79
2023/02/27 05:45:19;;;;;;;8.40;2.90;;;;;;;-0.58;76.70;99441.13;221124;1275;22650;-77
2023/02/27 05:50:29;;;;;;;13.00;4.50;;;;;;;-0.59;76.78;99448.80;220932;1282;25685;-77
2023/02/27 05:55:46;;;;;;;8.60;3.60;;;;;;;-0.59;76.78;99448.09;221098;1261;25653;-77
2023/02/27 06:01:01;;;;;;;7.80;3.70;;;;;;;-0.58;76.97;99455.59;221000;1283;22675;-78
2023/02/27 06:06:12;;;;;;;7.50;3.80;;;;;;;-0.56;76.88;99463.25;220765;1281;22700;-78
2023/02/27 06:11:16;;;;;;;8.80;3.80;;;;;;;-0.53;76.74;99471.37;220945;1282;25766;-78
2023/02/27 06:16:19;;;;;;;4.40;2.20;;;;;;;-0.50;76.59;99476.74;220897;1278;25365;-77
2023/02/27 06:21:21;;;;;;;6.40;2.70;;;;;;;-0.49;76.50;99477.02;220916;1279;22679;-77
2023/02/27 06:26:23;;;;;;;7.30;3.00;;;;;;;-0.48;76.16;99482.48;220922;1281;22542;-76
2023/02/27 06:31:25;;;;;;;6.30;3.10;;;;;;;-0.47;76.00;99479.29;220892;1277;25077;-75
2023/02/27 06:36:28;;;;;;;10.00;4.00;;;;;;;-0.44;75.83;99483.78;220808;1281;23174;-77
2023/02/27 06:41:31;;;;;;;7.50;3.30;;;;;;;-0.44;75.94;99485.85;220933;1278;24252;-76
2023/02/27 06:46:33;;;;;;;11.40;5.50;;;;;;;-0.42;76.39;99492.59;221123;1275;23301;-77
2023/02/27 06:51:35;;;;;;;13.10;5.40;;;;;;;-0.37;76.01;99497.48;221242;1275;22575;-75
2023/02/27 06:56:38;;;;;;;9.30;3.80;;;;;;;-0.32;76.10;99499.74;221526;1262;22602;-77
2023/02/27 07:01:40;;;;;;;8.60;4.50;;;;;;;-0.24;76.15;99504.62;221533;1259;24327;-76
2023/02/27 07:06:43;;;;;;;9.90;4.50;;;;;;;-0.15;75.84;99507.13;221883;1267;25466;-77
2023/02/27 07:12:06;;;;;;;9.20;4.60;;;;;;;-0.02;76.14;99509.71;221566;1259;22881;-77
2023/02/27 07:17:09;;;;;;;10.90;5.20;;;;;;;0.16;75.88;99503.29;221641;1261;24244;-76
2023/02/27 07:22:14;;;;;;;9.30;4.50;;;;;;;0.35;75.86;99497.11;221302;1259;22702;-79
2023/02/27 07:27:17;;;;;;;12.80;5.60;;;;;;;0.50;75.51;99506.60;221401;1263;22949;-79
2023/02/27 07:32:26;;;;;;;8.10;4.60;;;;;;;0.63;75.29;99520.27;221415;1260;25158;-80
2023/02/27 07:37:29;;;;;;;7.20;3.70;;;;;;;0.74;75.38;99525.73;221333;1275;22574;-79
2023/02/27 07:42:32;;;;;;;7.00;3.70;;;;;;;0.81;74.85;99522.48;221363;1275;24256;-80
2023/02/27 07:47:40;;;;;;;6.70;3.80;;;;;;;0.86;74.61;99522.30;221392;1274;25188;-80
2023/02/27 07:52:48;;;;;;;6.90;4.00;;;;;;;0.92;74.75;99528.29;221263;1275;22585;-79
2023/02/27 07:57:54;;;;;;;7.80;4.30;;;;;;;0.97;74.59;99538.48;221480;1275;22890;-81
2023/02/27 08:02:57;;;;;;;8.20;3.90;;;;;;;1.09;75.11;99546.86;222639;1270;22704;-79
2023/02/27 08:08:02;;;;;;;8.60;4.50;;;;;;;1.17;74.82;99545.61;221418;1259;24315;-79
2023/02/27 08:13:05;;;;;;;9.10;4.90;;;;;;;1.30;74.79;99545.31;221576;1275;24193;-79
2023/02/27 08:18:07;;;;;;;8.60;5.30;;;;;;;1.47;75.02;99553.44;221396;1267;22544;-79
2023/02/27 08:23:10;;;;;;;9.30;5.00;;;;;;;1.59;74.82;99561.92;221369;1275;22529;-79
2023/02/27 08:28:13;;;;;;;9.60;5.50;;;;;;;1.67;74.72;99569.33;221162;1275;22590;-79
2023/02/27 08:33:19;;;;;;;9.70;6.10;;;;;;;1.72;74.32;99574.52;221377;1278;22653;-78
2023/02/27 08:38:27;;;;;;;9.50;5.60;;;;;;;1.80;74.69;99581.41;221276;1259;24762;-78
2023/02/27 08:43:30;;;;;;;10.20;6.10;;;;;;;1.81;74.25;99583.96;221360;1274;25317;-79
2023/02/27 08:48:33;;;;;;;8.40;5.80;;;;;;;1.79;74.37;99591.91;221277;1275;24244;-79
2023/02/27 08:53:35;;;;;;;9.50;5.50;;;;;;;1.70;74.26;99594.14;221256;1264;22578;-79
2023/02/27 08:58:38;;;;;;;7.70;5.80;;;;;;;1.63;74.33;99601.38;221606;1275;23026;-78
2023/02/27 09:03:48;;;;;;;9.20;5.90;;;;;;;1.61;74.70;99608.51;221463;1275;24280;-79
2023/02/27 09:09:05;;;;;;;9.80;6.20;;;;;;;1.66;74.87;99614.02;221288;1261;22615;-78
2023/02/27 09:14:18;;;;;;;11.20;6.90;;;;;;;1.70;74.66;99618.95;221405;1275;24395;-79
2023/02/27 09:19:26;;;;;;;8.60;4.40;;;;;;;1.74;75.25;99621.46;221366;1276;22551;-79
2023/02/27 09:24:32;;;;;;;3.40;2.40;;;;;;;1.82;74.75;99621.86;221268;1275;22552;-79
2023/02/27 09:29:37;;;;;;;7.60;4.20;;;;;;;1.99;74.35;99622.52;221378;1275;22539;-79
2023/02/27 09:34:39;;;;;;;7.20;3.90;;;;;;;2.39;74.60;99624.54;221454;1274;22615;-79
2023/02/27 09:39:42;;;;;;;4.80;2.70;;;;;;;2.82;74.39;99617.60;221520;1278;22549;-78
2023/02/27 09:45:00;;;;;;;2.50;1.20;;;;;;;3.25;73.95;99614.06;221491;1268;26043;-79
2023/02/27 09:50:43;;;;;;;5.30;2.30;;;;;;;3.50;72.74;99608.29;221487;1270;22680;-78
2023/02/27 09:55:50;;;;;;;6.60;4.00;;;;;;;3.75;72.53;99617.69;220740;1275;24254;-79
2023/02/27 10:01:08;;;;;;;7.40;4.60;;;;;;;3.92;71.94;99612.50;221543;1268;22565;-79
2023/02/27 10:06:42;;;;;;;7.90;5.20;;;;;;;4.10;71.71;99618.48;221671;1270;23830;-78
2023/02/27 10:11:55;;;;;;;5.90;4.30;;;;;;;4.17;70.62;99610.29;221576;1275;22537;-78
2023/02/27 10:17:02;;;;;;;11.60;7.40;;;;;;;4.01;70.36;99618.95;221603;1278;24525;-79
2023/02/27 10:22:11;;;;;;;7.80;6.00;;;;;;;3.79;70.81;99614.42;221367;1275;25473;-78
2023/02/27 10:27:20;;;;;;;8.10;6.10;;;;;;;3.52;70.16;99617.65;221422;1262;22966;-79
2023/02/27 10:32:29;;;;;;;9.50;6.60;;;;;;;3.25;70.20;99615.65;221009;1277;24312;-79
2023/02/27 10:37:36;;;;;;;8.50;6.50;;;;;;;3.14;70.66;99622.27;221421;1268;25460;-79
2023/02/27 10:42:40;;;;;;;10.40;6.50;;;;;;;3.12;70.72;99618.09;221493;1271;23217;-80
2023/02/27 10:47:44;;;;;;;12.40;6.10;;;;;;;3.19;70.53;99615.63;221474;1275;25397;-79
2023/02/27 10:52:51;;;;;;;8.10;4.80;;;;;;;3.39;70.61;99611.75;221491;1274;23560;-78
2023/02/27 10:57:57;;;;;;;7.40;4.70;;;;;;;3.26;69.11;99617.98;221466;1275;24307;-77
2023/02/27 11:03:00;;;;;;;4.50;2.80;;;;;;;3.01;68.73;99620.83;221715;1274;22627;-79
2023/02/27 11:08:20;;;;;;;4.10;2.40;;;;;;;2.72;68.06;99628.13;221351;1275;22558;-79
2023/02/27 11:13:24;;;;;;;3.60;1.80;;;;;;;2.48;67.43;99626.70;221282;1278;243215;-78
2023/02/27 11:18:29;;;;;;;2.80;2.00;;;;;;;2.35;66.43;99627.64;221524;1277;22892;-78
2023/02/27 11:23:32;;;;;;;3.60;2.20;;;;;;;2.36;66.62;99623.78;221536;1271;23475;-77
2023/02/27 11:28:35;;;;;;;6.20;3.00;;;;;;;2.51;67.28;99622.52;221642;1275;26029;-77
2023/02/27 11:33:39;;;;;;;5.80;3.40;;;;;;;2.64;66.73;99621.86;221228;1270;24656;-76
2023/02/27 11:38:49;;;;;;;5.40;3.10;;;;;;;2.78;66.56;99619.35;221228;1280;22880;-76
2023/02/27 11:43:52;;;;;;;3.90;2.50;;;;;;;2.87;66.52;99628.04;221163;1270;22539;-76
2023/02/27 11:49:06;;;;;;;4.00;2.60;;;;;;;2.79;66.45;99627.41;221214;1275;24149;-76
2023/02/27 11:54:31;;;;;;;3.60;2.50;;;;;;;2.79;66.00;99624.46;221200;1275;25364;-76
2023/02/27 11:59:40;;;;;;;3.20;2.40;;;;;;;2.91;66.12;99618.52;221431;1261;22649;-77
2023/02/27 12:04:51;;;;;;;5.20;3.40;;;;;;;3.03;65.89;99615.79;221244;1262;22573;-76
2023/02/27 12:10:10;;;;;;;4.60;2.90;;;;;;;3.02;65.57;99625.85;221315;1267;25906;-78
2023/02/27 12:15:23;;;;;;;3.30;2.30;;;;;;;2.92;65.01;99622.63;221594;1263;22530;-76
2023/02/27 12:20:57;;;;;;;2.80;1.90;;;;;;;2.84;65.31;99621.15;221761;1275;22886;-76
2023/02/27 12:26:24;;;;;;;3.50;2.40;;;;;;;2.95;65.04;99622.73;221349;1276;22666;-76
2023/02/27 12:31:31;;;;;;;5.10;3.40;;;;;;;3.23;64.73;99625.53;221658;1275;22575;-74
2023/02/27 12:36:34;;;;;;;4.80;3.50;;;;;;;3.63;64.98;99627.37;221680;1264;25490;-75
2023/02/27 12:41:51;;;;;;;7.90;4.10;;;;;;;4.07;64.44;99623.68;221679;1275;22580;-75
2023/02/27 12:46:56;;;;;;;5.80;3.20;;;;;;;4.20;63.82;99637.91;221642;1259;22672;-75
2023/02/27 12:52:09;;;;;;;3.30;2.60;;;;;;;3.95;63.14;99641.83;221708;1259;22555;-76
2023/02/27 12:57:27;;;;;;;4.90;3.40;;;;;;;3.56;63.27;99645.42;221616;1280;24413;-75
2023/02/27 13:02:43;;;;;;;5.20;3.40;;;;;;;3.25;62.96;99643.36;221643;1267;25440;-76
2023/02/27 13:08:15;;;;;;;5.10;3.40;;;;;;;3.14;62.91;99642.10;221764;1266;25419;-75
2023/02/27 13:13:25;;;;;;;5.10;3.20;;;;;;;3.31;62.69;99649.61;221906;1262;22523;-75
2023/02/27 13:18:36;;;;;;;5.70;3.90;;;;;;;3.61;63.18;99645.86;221772;1264;22552;-76
2023/02/27 13:24:01;;;;;;;6.00;3.60;;;;;;;3.74;63.24;99645.86;222982;1270;24368;-76
2023/02/27 13:29:05;;;;;;;5.30;3.60;;;;;;;3.80;63.00;99644.48;221596;1275;22557;-75
2023/02/27 13:34:16;;;;;;;8.60;4.80;;;;;;;3.80;62.51;99645.86;221710;1274;22543;-76
2023/02/27 13:39:52;;;;;;;7.70;4.70;;;;;;;3.88;62.22;99649.60;221181;1280;24298;-76
2023/02/27 13:45:02;;;;;;;7.50;5.30;;;;;;;3.85;61.68;99644.59;221213;1275;23344;-79
2023/02/27 13:50:23;;;;;;;9.20;5.30;;;;;;;3.85;62.11;99650.52;221258;1273;24209;-75
2023/02/27 13:55:29;;;;;;;6.50;3.40;;;;;;;3.73;62.49;99657.47;221478;1259;24215;-77
2023/02/27 14:00:36;;;;;;;8.20;4.80;;;;;;;3.32;63.03;99666.12;221516;1260;22534;-76
2023/02/27 14:05:43;;;;;;;8.80;5.50;;;;;;;2.86;63.44;99673.54;221620;1268;23018;-76
2023/02/27 14:11:15;;;;;;;7.50;4.80;;;;;;;2.44;64.00;99679.33;221374;1275;22620;-75
2023/02/27 14:16:53;;;;;;;8.20;4.90;;;;;;;2.20;64.77;99683.89;221332;1274;22540;-79
2023/02/27 14:22:08;;;;;;;7.50;5.70;;;;;;;2.10;65.17;99680.64;220725;1275;22615;-78
2023/02/27 14:27:24;;;;;;;6.10;5.10;;;;;;;2.13;65.00;99680.23;221375;1270;22674;-78
2023/02/27 14:32:32;;;;;;;8.60;5.90;;;;;;;2.16;64.72;99678.67;221464;1275;24302;-77
2023/02/27 14:37:37;;;;;;;9.00;5.40;;;;;;;2.19;65.01;99682.80;221392;1274;25379;-77
2023/02/27 14:42:58;;;;;;;9.70;5.80;;;;;;;2.23;64.95;99683.52;221266;1275;24417;-77
2023/02/27 14:48:00;;;;;;;11.80;6.80;;;;;;;2.28;65.34;99686.95;220903;1278;25253;-79
2023/02/27 14:53:05;;;;;;;10.60;6.90;;;;;;;2.32;65.62;99691.33;221136;1275;22563;-77
2023/02/27 14:58:22;;;;;;;11.70;6.60;;;;;;;2.36;65.62;99700.13;221111;1271;22620;-77
2023/02/27 15:03:56;;;;;;;9.00;6.00;;;;;;;2.35;65.54;99706.45;221097;1264;25382;-77
2023/02/27 15:08:58;;;;;;;9.50;5.70;;;;;;;2.23;64.88;99713.05;220918;1281;22592;-76
2023/02/27 15:14:05;;;;;;;8.90;5.40;;;;;;;2.12;64.86;99711.94;221117;1278;24372;-76
2023/02/27 15:19:12;;;;;;;8.30;5.90;;;;;;;2.04;65.00;99717.21;221263;1275;22727;-78
2023/02/27 15:24:22;;;;;;;11.10;5.80;;;;;;;1.97;64.72;99716.86;220926;1281;23781;-77
2023/02/27 15:29:36;;;;;;;11.40;7.10;;;;;;;1.91;64.19;99717.50;221133;1275;24484;-77
2023/02/27 15:34:42;;;;;;;6.70;4.00;;;;;;;1.86;64.36;99725.15;221355;1271;22552;-77
2023/02/27 15:39:45;;;;;;;5.50;3.50;;;;;;;1.73;63.58;99730.70;220985;1281;22720;-78
2023/02/27 15:44:49;;;;;;;6.80;4.00;;;;;;;1.63;63.24;99737.54;221285;1281;23946;-78
2023/02/27 15:50:00;;;;;;;9.50;5.70;;;;;;;1.56;63.38;99737.86;221166;1279;22550;-77
2023/02/27 15:55:09;;;;;;;6.90;4.90;;;;;;;1.52;63.98;99744.08;221258;1281;25488;-76
2023/02/27 16:00:15;;;;;;;5.70;4.10;;;;;;;1.40;63.03;99756.00;221085;1281;22715;-77
2023/02/27 16:05:25;;;;;;;5.70;4.30;;;;;;;1.24;63.39;99756.93;221172;1281;23211;-77
2023/02/27 16:10:34;;;;;;;8.50;4.80;;;;;;;1.13;63.93;99765.46;221154;1281;22551;-77
2023/02/27 16:15:38;;;;;;;9.10;5.40;;;;;;;1.01;64.19;99770.64;221154;1278;22540;-76
2023/02/27 16:20:53;;;;;;;8.40;5.30;;;;;;;0.87;64.34;99769.10;221033;1262;22804;-76
2023/02/27 16:26:25;;;;;;;8.00;5.40;;;;;;;0.73;64.69;99771.96;221098;1281;22718;-77
2023/02/27 16:31:45;;;;;;;8.80;5.80;;;;;;;0.62;65.06;99771.46;221156;1275;25341;-77
2023/02/27 16:36:56;;;;;;;13.30;7.90;;;;;;;0.52;65.40;99772.83;221120;1278;24267;-78
2023/02/27 16:42:00;;;;;;;13.30;8.30;;;;;;;0.42;65.83;99780.29;221288;1279;22628;-77
2023/02/27 16:47:02;;;;;;;15.10;7.80;;;;;;;0.40;66.17;99784.59;221129;1281;25487;-77
2023/02/27 16:52:10;;;;;;;12.70;7.70;;;;;;;0.36;66.50;99790.35;221051;1280;25384;-77
2023/02/27 16:57:13;;;;;;;12.40;7.30;;;;;;;0.28;66.61;99797.60;221110;1271;25447;-78
2023/02/27 17:02:16;;;;;;;13.60;8.40;;;;;;;0.21;67.02;99802.91;221118;1279;22661;-77
2023/02/27 17:07:18;;;;;;;14.80;8.20;;;;;;;0.14;66.90;99805.10;221111;1275;23791;-76
2023/02/27 17:12:21;;;;;;;16.10;7.90;;;;;;;0.03;67.21;99812.20;221275;1275;22655;-76
2023/02/27 17:17:23;;;;;;;14.90;8.40;;;;;;;-0.05;67.11;99821.20;221156;1278;22662;-77
2023/02/27 17:22:25;;;;;;;14.60;8.90;;;;;;;-0.05;67.43;99824.00;221041;1281;24292;-76
2023/02/27 17:27:27;;;;;;;17.80;9.30;;;;;;;-0.02;67.15;99825.52;220940;1278;25449;-77
2023/02/27 17:32:30;;;;;;;15.70;9.40;;;;;;;0.05;67.29;99827.37;220956;1281;22540;-76
2023/02/27 17:37:33;;;;;;;22.00;12.30;;;;;;;0.12;67.36;99834.91;221205;1278;22596;-76
2023/02/27 17:42:36;;;;;;;22.20;12.20;;;;;;;0.16;67.48;99838.77;221042;1279;23779;-77
2023/02/27 17:47:38;;;;;;;16.80;10.30;;;;;;;0.19;67.45;99844.46;221105;1278;25557;-76
2023/02/27 17:52:39;;;;;;;17.00;8.50;;;;;;;0.21;67.57;99850.24;220901;1281;22599;-76
2023/02/27 17:57:41;;;;;;;12.90;6.70;;;;;;;0.22;67.18;99851.91;221170;1278;25683;-78
2023/02/27 18:02:46;;;;;;;10.50;6.20;;;;;;;0.20;66.60;99854.27;221082;1281;22530;-77
2023/02/27 18:07:49;;;;;;;10.30;5.30;;;;;;;0.16;66.76;99858.54;221066;1281;23723;-77
2023/02/27 18:12:51;;;;;;;9.90;5.50;;;;;;;0.07;66.37;99864.31;220948;1281;25479;-76
2023/02/27 18:17:53;;;;;;;13.10;6.50;;;;;;;-0.05;66.37;99871.40;221074;1281;23141;-77
2023/02/27 18:22:56;;;;;;;10.90;6.10;;;;;;;-0.13;66.33;99884.21;221156;1281;22592;-77
2023/02/27 18:28:00;;;;;;;10.30;6.10;;;;;;;-0.20;66.29;99890.54;221103;1280;24215;-77
2023/02/27 18:33:03;;;;;;;11.90;6.70;;;;;;;-0.26;66.20;99888.84;221219;1278;26641;-76
2023/02/27 18:38:05;;;;;;;12.30;7.50;;;;;;;-0.29;66.32;99892.28;221104;1281;25478;-77
2023/02/27 18:43:09;;;;;;;15.70;9.00;;;;;;;-0.30;65.98;99895.67;221214;1276;25443;-77
2023/02/27 18:48:14;;;;;;;15.70;8.10;;;;;;;-0.31;66.22;99905.24;221051;1281;22526;-76
2023/02/27 18:53:17;;;;;;;11.00;6.70;;;;;;;-0.31;66.09;99908.34;221067;1281;25233;-77
2023/02/27 18:58:20;;;;;;;13.40;7.80;;;;;;;-0.27;65.85;99908.08;221301;1278;23940;-77
2023/02/27 19:03:24;;;;;;;15.30;8.30;;;;;;;-0.20;65.57;99913.55;221230;1278;24232;-78
2023/02/27 19:08:28;;;;;;;13.00;7.10;;;;;;;-0.15;65.97;99915.34;221403;1278;23777;-78
2023/02/27 19:13:30;;;;;;;16.60;8.00;;;;;;;-0.11;65.96;99918.00;221056;1281;23009;-76
2023/02/27 19:18:32;;;;;;;30.10;13.10;;;;;;;-0.08;65.63;99925.27;221264;1281;24305;-77
2023/02/27 19:23:35;;;;;;;24.00;10.50;;;;;;;-0.03;65.75;99929.14;220978;1281;22979;-77
2023/02/27 19:28:37;;;;;;;28.50;11.90;;;;;;;-0.02;65.93;99930.98;221146;1281;24409;-78
2023/02/27 19:33:39;;;;;;;27.60;12.80;;;;;;;-0.02;65.99;99934.27;221020;1281;22553;-76
2023/02/27 19:38:42;;;;;;;24.60;12.60;;;;;;;0.01;66.11;99937.41;221049;1280;24372;-77
2023/02/27 19:43:45;;;;;;;27.30;13.90;;;;;;;0.01;65.89;99939.27;221065;1281;25360;-77
2023/02/27 19:48:49;;;;;;;27.50;13.60;;;;;;;0.04;66.32;99942.08;221189;1278;25582;-76
2023/02/27 19:53:52;;;;;;;25.30;12.80;;;;;;;0.05;66.48;99948.05;221001;1281;25468;-77
2023/02/27 19:58:54;;;;;;;29.30;13.70;;;;;;;0.03;66.47;99951.46;221062;1281;22699;-77
2023/02/27 20:03:58;;;;;;;25.20;13.40;;;;;;;-0.00;66.32;99955.30;221205;1279;24296;-77
2023/02/27 20:09:01;;;;;;;27.00;15.80;;;;;;;-0.03;65.93;99957.52;221004;1281;22635;-77
2023/02/27 20:14:04;;;;;;;24.00;14.00;;;;;;;-0.07;66.41;99965.38;221105;1280;22729;-77
2023/02/27 20:19:09;;;;;;;27.20;15.20;;;;;;;-0.12;66.26;99969.64;221054;1281;25419;-76
2023/02/27 20:24:13;;;;;;;34.10;17.20;;;;;;;-0.21;66.25;99975.59;221114;1281;26397;-77
2023/02/27 20:29:21;;;;;;;27.00;14.70;;;;;;;-0.31;66.47;99980.17;221203;1281;22785;-76
2023/02/27 20:34:25;;;;;;;31.00;17.50;;;;;;;-0.41;66.70;99981.07;221102;1278;22546;-78
2023/02/27 20:39:27;;;;;;;33.80;18.20;;;;;;;-0.46;67.14;99983.16;221276;1281;22632;-78
2023/02/27 20:44:29;;;;;;;34.30;19.60;;;;;;;-0.50;67.16;99983.01;221211;1275;22741;-78
2023/02/27 20:49:31;;;;;;;33.90;18.80;;;;;;;-0.51;67.60;99981.35;221209;1281;23817;-77
2023/02/27 20:54:33;;;;;;;35.40;18.70;;;;;;;-0.49;67.96;99986.09;221194;1281;25387;-78
2023/02/27 20:59:35;;;;;;;34.20;19.80;;;;;;;-0.45;67.99;99991.89;221178;1281;23794;-78
2023/02/27 21:04:45;;;;;;;38.50;20.10;;;;;;;-0.41;68.00;99998.18;221227;1281;22628;-77
2023/02/27 21:09:49;;;;;;;37.00;19.70;;;;;;;-0.39;67.66;99994.47;221338;1278;22546;-78
2023/02/27 21:14:51;;;;;;;33.20;19.20;;;;;;;-0.38;67.90;99991.65;221307;1281;22588;-78
2023/02/27 21:19:53;;;;;;;36.70;19.60;;;;;;;-0.37;68.14;99988.78;221021;1279;22687;-78
2023/02/27 21:24:56;;;;;;;35.80;18.00;;;;;;;-0.37;68.23;99990.55;221038;1281;22698;-77
2023/02/27 21:29:58;;;;;;;36.10;19.40;;;;;;;-0.40;68.38;99992.45;221112;1281;23319;-78
2023/02/27 21:35:00;;;;;;;35.10;20.50;;;;;;;-0.41;68.47;99985.42;220953;1282;24295;-77
2023/02/27 21:40:03;;;;;;;37.90;18.20;;;;;;;-0.43;68.48;99991.73;221140;1281;24373;-77
2023/02/27 21:45:06;;;;;;;31.60;17.00;;;;;;;-0.43;68.81;99996.95;221042;1280;22569;-76
2023/02/27 21:50:13;;;;;;;38.90;20.70;;;;;;;-0.41;69.18;99997.18;221076;1281;23040;-78
2023/02/27 21:55:16;;;;;;;35.90;19.10;;;;;;;-0.39;69.15;99996.02;221251;1281;22653;-76
2023/02/27 22:00:19;;;;;;;35.60;18.20;;;;;;;-0.37;69.32;99995.73;221143;1278;23220;-77
2023/02/27 22:05:21;;;;;;;30.50;15.10;;;;;;;-0.32;69.09;99999.13;221203;1279;22702;-77
2023/02/27 22:10:24;;;;;;;30.90;15.20;;;;;;;-0.26;68.70;100000.31;221103;1281;22608;-77
2023/02/27 22:15:30;;;;;;;24.70;12.10;;;;;;;-0.21;68.59;99995.01;221145;1281;22575;-77
2023/02/27 22:20:34;;;;;;;21.60;10.70;;;;;;;-0.16;67.95;99990.20;221096;1278;22645;-76
2023/02/27 22:25:38;;;;;;;41.60;18.00;;;;;;;-0.12;67.78;99993.03;221372;1278;23856;-76
2023/02/27 22:30:41;;;;;;;27.70;12.50;;;;;;;-0.10;67.41;99992.24;221120;1279;22543;-77
2023/02/27 22:35:43;;;;;;;29.60;13.20;;;;;;;-0.06;67.40;99994.11;221092;1281;22537;-77
2023/02/27 22:40:45;;;;;;;21.60;10.40;;;;;;;-0.06;67.30;99996.84;221166;1280;25450;-77
2023/02/27 22:45:51;;;;;;;19.40;10.60;;;;;;;-0.02;67.02;99997.33;221219;1279;22603;-76
2023/02/27 22:51:10;;;;;;;20.60;10.60;;;;;;;0.02;67.27;99999.36;221141;1275;24228;-76
2023/02/27 22:56:15;;;;;;;18.80;9.50;;;;;;;0.03;67.00;99997.71;221293;1282;22696;-77
2023/02/27 23:01:27;;;;;;;18.00;9.70;;;;;;;0.01;66.56;99999.36;221159;1279;23223;-77
2023/02/27 23:06:34;;;;;;;29.60;13.00;;;;;;;0.02;66.81;100002.09;221110;1279;25344;-77
2023/02/27 23:11:36;;;;;;;29.30;14.10;;;;;;;0.06;66.74;99994.77;221193;1267;25538;-77
2023/02/27 23:16:44;;;;;;;30.30;14.00;;;;;;;0.06;66.65;99998.02;220944;1281;102791;-77
2023/02/27 23:21:47;;;;;;;28.30;14.10;;;;;;;0.05;66.48;100003.65;221102;1279;22561;-77
2023/02/27 23:26:51;;;;;;;25.30;11.60;;;;;;;0.06;66.79;100010.83;221109;1281;22541;-77
2023/02/27 23:31:53;;;;;;;20.00;11.80;;;;;;;0.06;67.11;100009.49;221152;1273;25296;-76
2023/02/27 23:36:55;;;;;;;17.90;10.10;;;;;;;0.06;66.92;100008.42;221081;1281;22565;-77
2023/02/27 23:41:57;;;;;;;18.40;11.10;;;;;;;0.08;67.05;100011.45;221123;1281;22799;-76
2023/02/27 23:47:02;;;;;;;18.10;10.20;;;;;;;0.09;66.77;100009.66;221143;1279;22546;-76
2023/02/27 23:52:04;;;;;;;18.20;10.90;;;;;;;0.09;66.59;100010.20;221005;1279;23984;-77
2023/02/27 23:57:07;;;;;;;18.90;10.40;;;;;;;0.11;66.57;100008.17;220968;1281;22543;-77
